Time;durP1;ratioP1;P1;durP2;ratioP2;P2;SDS_P1;SDS_P2;PMS_P1;PMS_P2;Temp;Humidity;BMP_temperature;BMP_pressure;BME280_temperature;BME280_humidity;BME280_pressure;Samples;Min_cycle;Max_cycle;Signal;HPM_P1;HPM_P2
2023/05/24 00:00:24;;;;;;;7.63;2.53;;;;;;;7.67;79.13;102371.06;5015071;28;20028;-70
2023/05/24 00:02:50;;;;;;;5.53;2.20;;;;;;;7.65;79.28;102372.97;5012214;28;20122;-70
2023/05/24 00:05:17;;;;;;;8.18;1.92;;;;;;;7.64;79.63;102371.19;5005039;28;20127;-70
2023/05/24 00:07:43;;;;;;;9.27;2.35;;;;;;;7.60;79.90;102364.13;5012155;28;20522;-70
2023/05/24 00:10:09;;;;;;;7.20;1.92;;;;;;;7.60;79.11;102368.63;5011107;28;20025;-70
2023/05/24 00:12:34;;;;;;;6.00;1.92;;;;;;;7.55;79.83;102368.78;5011023;28;20056;-70
2023/05/24 00:15:00;;;;;;;13.10;2.40;;;;;;;7.51;80.78;102360.88;5017854;28;20269;-70
2023/05/24 00:17:26;;;;;;;6.97;2.65;;;;;;;7.47;80.46;102354.66;5012330;28;21631;-70
2023/05/24 00:19:52;;;;;;;8.52;2.53;;;;;;;7.41;80.12;102346.72;5009778;28;20579;-70
2023/05/24 00:22:19;;;;;;;12.68;2.45;;;;;;;7.36;80.61;102348.72;5013652;28;20040;-70
2023/05/24 00:24:46;;;;;;;8.18;3.00;;;;;;;7.31;80.72;102350.72;5008705;28;20531;-70
2023/05/24 00:27:13;;;;;;;10.60;2.50;;;;;;;7.30;80.67;102347.13;5012854;28;20129;-70
2023/05/24 00:29:38;;;;;;;6.68;2.00;;;;;;;7.27;80.62;102343.63;5018092;28;20458;-70
2023/05/24 00:32:04;;;;;;;11.88;2.28;;;;;;;7.26;80.29;102342.75;5008438;28;20084;-70
2023/05/24 00:34:29;;;;;;;8.55;2.30;;;;;;;7.25;80.57;102340.09;5017967;28;20136;-70
2023/05/24 00:36:56;;;;;;;4.82;2.67;;;;;;;7.22;81.32;102343.78;5017212;28;20108;-70
2023/05/24 00:39:22;;;;;;;9.65;3.45;;;;;;;7.18;81.87;102346.66;5014910;28;20038;-70
2023/05/24 00:41:47;;;;;;;10.75;2.80;;;;;;;7.14;81.00;102338.66;5008078;28;20057;-70
2023/05/24 00:44:13;;;;;;;9.25;2.15;;;;;;;7.10;80.97;102336.97;5015783;28;20022;-70
2023/05/24 00:46:40;;;;;;;7.43;2.38;;;;;;;7.07;82.71;102342.50;5026332;28;20037;-70
2023/05/24 00:49:06;;;;;;;6.22;2.50;;;;;;;7.00;83.88;102345.47;5009704;28;20030;-70
2023/05/24 00:51:32;;;;;;;9.18;2.40;;;;;;;6.94;84.17;102334.84;5008688;28;20044;-70
2023/05/24 00:53:58;;;;;;;10.10;3.33;;;;;;;6.90;82.59;102334.97;5009544;28;20083;-70
2023/05/24 00:56:25;;;;;;;8.63;2.42;;;;;;;6.93;81.77;102330.38;5029204;28;20041;-70
2023/05/24 00:58:53;;;;;;;13.10;2.50;;;;;;;6.95;82.29;102332.09;5029197;28;20444;-70
2023/05/24 01:01:19;;;;;;;6.70;2.10;;;;;;;6.94;81.70;102330.31;5027758;28;20057;-70
2023/05/24 01:03:45;;;;;;;11.95;2.28;;;;;;;6.95;81.48;102333.88;5019719;28;20554;-70
2023/05/24 01:06:12;;;;;;;7.57;2.60;;;;;;;6.92;82.04;102334.00;5028465;28;20064;-70
2023/05/24 01:08:37;;;;;;;12.73;2.35;;;;;;;6.89;81.56;102327.75;5021262;28;20033;-70
2023/05/24 01:11:16;;;;;;;10.18;2.30;;;;;;;6.85;81.45;102327.91;5007795;28;20034;-70
2023/05/24 01:14:02;;;;;;;14.48;2.42;;;;;;;6.84;81.47;102321.63;5007688;28;20492;-70
2023/05/24 01:16:51;;;;;;;7.80;2.72;;;;;;;6.81;81.58;102332.56;5008084;28;20131;-70
2023/05/24 01:19:42;;;;;;;7.90;2.40;;;;;;;6.77;81.65;102327.28;5036858;28;20054;-70
2023/05/24 01:22:37;;;;;;;6.30;2.22;;;;;;;6.75;81.31;102316.50;5026242;28;20057;-70
2023/05/24 01:25:26;;;;;;;7.20;2.78;;;;;;;6.71;81.49;102313.94;5007252;28;20053;-70
2023/05/24 01:27:52;;;;;;;12.00;2.75;;;;;;;6.67;81.84;102321.31;5008951;28;20120;-69
2023/05/24 01:30:18;;;;;;;7.57;2.22;;;;;;;6.64;82.11;102324.97;5007937;28;20034;-69
2023/05/24 01:32:44;;;;;;;11.20;2.35;;;;;;;6.62;82.23;102323.25;5008962;28;20662;-70
2023/05/24 01:35:11;;;;;;;5.03;2.42;;;;;;;6.60;82.20;102325.13;5015394;28;20061;-70
2023/05/24 01:37:36;;;;;;;8.07;2.47;;;;;;;6.59;82.30;102331.47;5007516;28;20041;-69
2023/05/24 01:40:03;;;;;;;5.32;2.00;;;;;;;6.57;82.06;102319.81;5019600;28;20054;-69
2023/05/24 01:42:42;;;;;;;11.48;2.40;;;;;;;6.53;82.78;102318.16;5008800;28;20121;-70
2023/05/24 01:45:15;;;;;;;6.30;2.40;;;;;;;6.51;82.91;102320.91;5009426;28;20038;-70
2023/05/24 01:48:04;;;;;;;8.82;2.25;;;;;;;6.49;81.88;102316.50;5008348;28;20096;-70
2023/05/24 01:50:44;;;;;;;7.97;2.45;;;;;;;6.45;82.87;102313.00;5008895;28;21204;-69
2023/05/24 01:53:12;;;;;;;7.43;2.60;;;;;;;6.41;82.41;102305.91;5007089;28;20484;-69
2023/05/24 01:55:38;;;;;;;6.43;2.63;;;;;;;6.37;82.36;102301.53;5007676;28;20024;-69
2023/05/24 01:58:05;;;;;;;6.07;2.33;;;;;;;6.32;82.60;102303.50;4993547;28;20057;-70
2023/05/24 02:00:33;;;;;;;11.38;2.65;;;;;;;6.32;82.41;102309.78;5008576;28;20569;-70
2023/05/24 02:03:00;;;;;;;7.22;2.83;;;;;;;6.30;83.04;102310.78;5008295;28;20504;-70
2023/05/24 02:05:26;;;;;;;8.02;2.40;;;;;;;6.26;83.02;102312.69;5008441;28;20025;-70
2023/05/24 02:07:52;;;;;;;6.35;2.85;;;;;;;6.24;82.98;102314.53;5006072;28;20037;-70
2023/05/24 02:10:17;;;;;;;10.48;3.00;;;;;;;6.24;83.13;102321.75;5008006;28;20109;-70
2023/05/24 02:12:43;;;;;;;6.75;2.35;;;;;;;6.21;83.13;102319.16;5006989;28;20044;-70
2023/05/24 02:15:09;;;;;;;8.82;2.88;;;;;;;6.19;83.37;102326.41;5008839;28;20042;-70
2023/05/24 02:17:35;;;;;;;5.88;2.72;;;;;;;6.16;83.27;102322.00;5016404;28;20128;-69
2023/05/24 02:20:02;;;;;;;10.63;3.53;;;;;;;6.13;83.44;102322.09;5026719;28;20140;-70
2023/05/24 02:22:27;;;;;;;5.45;2.63;;;;;;;6.13;83.64;102324.78;5026104;28;20392;-70
2023/05/24 02:24:53;;;;;;;9.68;2.97;;;;;;;6.12;83.36;102323.91;5007742;28;20040;-69
2023/05/24 02:27:19;;;;;;;7.35;2.92;;;;;;;6.11;83.57;102326.66;5009222;28;20033;-69
2023/05/24 02:29:44;;;;;;;8.25;2.80;;;;;;;6.09;83.96;102332.09;5025939;28;20477;-69
2023/05/24 02:32:10;;;;;;;6.80;3.58;;;;;;;6.05;83.66;102334.94;5022119;28;20038;-70
2023/05/24 02:34:37;;;;;;;8.35;3.30;;;;;;;6.02;84.29;102330.53;5007862;28;20418;-70
2023/05/24 02:37:03;;;;;;;7.68;2.90;;;;;;;6.01;84.46;102327.84;5007996;28;20034;-70
2023/05/24 02:39:29;;;;;;;10.90;3.72;;;;;;;6.01;83.76;102322.44;5004987;28;20030;-69
2023/05/24 02:41:54;;;;;;;7.72;3.05;;;;;;;6.00;83.31;102328.78;5007960;28;20371;-69
2023/05/24 02:44:20;;;;;;;7.22;2.95;;;;;;;5.98;83.84;102327.97;5011785;28;20059;-69
2023/05/24 02:46:46;;;;;;;12.00;4.15;;;;;;;5.95;83.91;102333.44;5024522;28;20044;-69
2023/05/24 02:49:11;;;;;;;8.07;2.95;;;;;;;5.89;85.33;102335.34;5007532;28;20084;-69
2023/05/24 02:51:37;;;;;;;3.55;2.80;;;;;;;5.82;84.92;102335.56;5007023;28;20045;-69
2023/05/24 02:54:02;;;;;;;10.90;3.45;;;;;;;5.78;85.03;102337.50;5006777;28;20116;-69
2023/05/24 02:56:28;;;;;;;8.30;3.47;;;;;;;5.77;84.64;102335.69;5017259;28;20080;-69
2023/05/24 02:58:54;;;;;;;5.25;2.70;;;;;;;5.75;83.88;102340.28;5005641;28;20033;-69
2023/05/24 03:01:21;;;;;;;10.75;2.67;;;;;;;5.74;84.19;102329.53;5008524;28;20061;-69
2023/05/24 03:03:47;;;;;;;8.70;3.35;;;;;;;5.75;84.50;102334.88;5006446;28;20084;-69
2023/05/24 03:06:14;;;;;;;12.63;3.92;;;;;;;5.75;84.77;102332.16;5007329;28;20029;-69
2023/05/24 03:08:40;;;;;;;12.23;3.17;;;;;;;5.73;85.10;102331.31;5005843;28;20134;-69
2023/05/24 03:11:06;;;;;;;11.63;3.70;;;;;;;5.72;84.75;102334.94;5006138;28;20120;-69
2023/05/24 03:13:33;;;;;;;6.47;3.03;;;;;;;5.70;84.89;102333.25;5005585;28;20053;-70
2023/05/24 03:15:58;;;;;;;12.00;3.45;;;;;;;5.68;85.14;102335.06;5007684;28;20034;-70
2023/05/24 03:18:23;;;;;;;8.77;3.20;;;;;;;5.64;84.75;102331.56;5005631;28;20088;-69
2023/05/24 03:20:50;;;;;;;8.30;3.47;;;;;;;5.63;84.35;102327.09;5005664;28;20037;-70
2023/05/24 03:23:15;;;;;;;7.15;3.40;;;;;;;5.60;84.33;102317.28;5006742;28;20056;-69
2023/05/24 03:25:42;;;;;;;5.90;2.95;;;;;;;5.58;84.76;102327.22;5005442;28;20481;-69
2023/05/24 03:28:08;;;;;;;9.43;3.38;;;;;;;5.55;84.79;102323.75;5005827;28;20034;-69
2023/05/24 03:30:33;;;;;;;9.52;3.45;;;;;;;5.53;84.91;102315.69;5005946;28;20188;-69
2023/05/24 03:32:59;;;;;;;9.40;3.67;;;;;;;5.51;84.90;102313.97;5005555;28;20034;-69
2023/05/24 03:35:25;;;;;;;12.55;3.65;;;;;;;5.52;84.55;102316.63;5015142;28;20495;-70
2023/05/24 03:37:51;;;;;;;8.18;3.80;;;;;;;5.50;85.72;102321.19;5004793;28;20477;-69
2023/05/24 03:40:17;;;;;;;10.07;3.33;;;;;;;5.41;86.49;102302.53;5021514;28;20204;-69
2023/05/24 03:42:57;;;;;;;7.80;4.00;;;;;;;5.41;86.36;102313.34;5009803;28;20026;-70
2023/05/24 03:45:39;;;;;;;6.60;3.27;;;;;;;5.46;86.48;102318.63;5018696;28;20062;-69
2023/05/24 03:48:04;;;;;;;10.98;3.83;;;;;;;5.47;85.93;102317.69;5005722;28;20080;-69
2023/05/24 03:50:29;;;;;;;10.05;3.65;;;;;;;5.48;85.51;102322.13;5005592;28;20315;-69
2023/05/24 03:52:55;;;;;;;9.77;4.05;;;;;;;5.48;85.60;102314.94;5004771;28;20095;-69
2023/05/24 03:55:21;;;;;;;12.25;3.75;;;;;;;5.49;85.83;102321.22;5006475;28;20084;-69
2023/05/24 03:57:48;;;;;;;10.38;3.55;;;;;;;5.49;85.48;102318.50;5005230;28;20034;-69
2023/05/24 04:00:14;;;;;;;5.88;3.15;;;;;;;5.51;85.66;102322.94;5005347;28;20042;-69
2023/05/24 04:02:39;;;;;;;9.60;3.70;;;;;;;5.50;86.27;102321.19;5007106;28;20482;-69
2023/05/24 04:05:09;;;;;;;8.30;3.70;;;;;;;5.48;86.08;102316.75;5005510;28;20109;-68
2023/05/24 04:07:38;;;;;;;9.32;3.85;;;;;;;5.51;85.76;102316.66;5005696;28;20175;-69
2023/05/24 04:10:05;;;;;;;10.98;3.22;;;;;;;5.50;87.31;102309.47;5008955;28;20030;-69
2023/05/24 04:12:31;;;;;;;9.93;3.45;;;;;;;5.54;87.08;102311.16;5028072;28;20226;-69
2023/05/24 04:14:58;;;;;;;9.70;4.28;;;;;;;5.57;86.32;102311.97;5028803;28;20099;-69
2023/05/24 04:17:24;;;;;;;9.02;3.70;;;;;;;5.58;86.68;102329.06;5027731;28;20039;-69
2023/05/24 04:19:50;;;;;;;9.70;3.55;;;;;;;5.58;86.67;102331.75;5030107;28;20037;-68
2023/05/24 04:22:17;;;;;;;6.72;3.72;;;;;;;5.62;87.15;102331.63;5030438;28;20675;-68
2023/05/24 04:24:46;;;;;;;8.63;3.50;;;;;;;5.66;87.08;102326.16;5026379;28;20095;-68
2023/05/24 04:27:12;;;;;;;7.82;3.58;;;;;;;5.72;86.27;102324.16;5028978;28;20033;-69
2023/05/24 04:29:39;;;;;;;7.35;3.15;;;;;;;5.76;87.06;102320.44;5027709;28;20055;-69
2023/05/24 04:32:05;;;;;;;10.48;3.92;;;;;;;5.81;86.61;102325.69;5009831;28;20044;-69
2023/05/24 04:34:34;;;;;;;10.60;4.25;;;;;;;5.86;86.85;102323.75;5008121;28;20346;-70
2023/05/24 04:37:00;;;;;;;8.95;4.10;;;;;;;5.89;86.13;102321.84;5007669;28;20029;-70
2023/05/24 04:39:28;;;;;;;6.78;3.80;;;;;;;5.93;86.42;102322.69;5012099;28;20070;-69
2023/05/24 04:41:56;;;;;;;12.75;4.60;;;;;;;5.97;86.99;102323.47;5010123;28;20037;-69
2023/05/24 04:44:23;;;;;;;13.60;3.85;;;;;;;5.99;86.57;102330.59;5009805;28;20041;-69
2023/05/24 04:46:48;;;;;;;9.77;3.95;;;;;;;6.03;87.00;102321.47;5009910;28;20546;-69
2023/05/24 04:49:14;;;;;;;9.43;4.57;;;;;;;6.10;86.30;102327.56;5017725;28;20041;-69
2023/05/24 04:51:39;;;;;;;15.30;4.13;;;;;;;6.17;86.61;102325.59;5030572;28;20041;-69
2023/05/24 04:54:07;;;;;;;10.70;4.00;;;;;;;6.22;86.22;102329.91;5017310;28;20401;-69
2023/05/24 04:56:37;;;;;;;9.02;3.75;;;;;;;6.29;86.38;102323.38;5012854;28;20086;-69
2023/05/24 04:59:06;;;;;;;10.27;4.13;;;;;;;6.35;86.77;102330.44;5029388;28;20497;-69
2023/05/24 05:01:32;;;;;;;9.80;3.65;;;;;;;6.42;86.64;102332.00;5029487;28;20037;-69
2023/05/24 05:03:59;;;;;;;12.15;4.15;;;;;;;6.48;87.50;102326.41;5012626;28;20104;-69
2023/05/24 05:06:25;;;;;;;11.10;4.60;;;;;;;6.55;86.71;102327.09;5022618;28;20120;-69
2023/05/24 05:08:51;;;;;;;14.07;5.32;;;;;;;6.62;86.95;102313.34;5023338;28;20450;-69
2023/05/24 05:11:17;;;;;;;11.25;5.03;;;;;;;6.71;87.04;102327.47;5009470;28;20137;-69
2023/05/24 05:13:43;;;;;;;13.80;5.13;;;;;;;6.78;86.72;102326.34;5024499;28;20129;-69
2023/05/24 05:16:09;;;;;;;10.63;4.75;;;;;;;6.85;87.14;102326.13;5010198;28;20129;-69
2023/05/24 05:18:35;;;;;;;18.42;6.07;;;;;;;6.93;86.31;102335.78;5008875;28;20072;-69
2023/05/24 05:21:01;;;;;;;12.98;5.47;;;;;;;7.01;86.52;102333.72;5013287;28;20274;-69
2023/05/24 05:23:27;;;;;;;13.90;5.25;;;;;;;7.02;87.05;102325.53;5028250;28;20053;-68
2023/05/24 05:25:52;;;;;;;17.77;5.97;;;;;;;7.15;86.99;102337.72;5011790;28;20065;-69
2023/05/24 05:28:18;;;;;;;16.42;5.38;;;;;;;7.23;86.85;102333.84;5008701;28;20046;-69
2023/05/24 05:30:43;;;;;;;17.75;5.65;;;;;;;7.29;87.51;102334.53;5009555;28;20096;-69
2023/05/24 05:33:08;;;;;;;13.27;4.90;;;;;;;7.38;87.43;102341.44;5009437;28;20042;-68
2023/05/24 05:35:34;;;;;;;13.27;5.50;;;;;;;7.44;87.60;102327.69;5007663;28;20053;-69
2023/05/24 05:37:59;;;;;;;18.85;5.82;;;;;;;7.53;86.54;102329.19;5008344;28;20033;-69
2023/05/24 05:40:24;;;;;;;18.00;5.30;;;;;;;7.59;87.16;102329.84;5023996;28;20077;-68
2023/05/24 05:42:50;;;;;;;17.15;5.13;;;;;;;7.66;88.80;102328.69;5023462;28;20087;-69
2023/05/24 05:45:15;;;;;;;13.73;6.00;;;;;;;7.71;89.34;102339.34;5023069;28;20539;-68
2023/05/24 05:47:42;;;;;;;24.55;7.13;;;;;;;7.78;87.86;102334.59;5015182;28;20425;-69
2023/05/24 05:50:07;;;;;;;14.52;5.32;;;;;;;7.85;90.30;102339.72;5009694;28;20026;-68
2023/05/24 05:52:33;;;;;;;18.13;6.75;;;;;;;7.91;91.03;102339.50;5006081;28;20087;-69
2023/05/24 05:54:59;;;;;;;17.52;5.82;;;;;;;8.00;88.96;102331.97;5008279;28;20024;-69
2023/05/24 05:57:25;;;;;;;18.77;6.05;;;;;;;8.08;89.66;102337.97;5008463;28;20132;-69
2023/05/24 05:59:50;;;;;;;19.00;6.05;;;;;;;8.16;89.39;102339.47;5026761;28;20519;-68
2023/05/24 06:02:17;;;;;;;19.15;6.60;;;;;;;8.24;90.28;102344.56;5022535;28;20034;-69
2023/05/24 06:04:43;;;;;;;11.10;4.55;;;;;;;8.33;89.16;102346.94;5028040;28;20049;-69
2023/05/24 06:07:08;;;;;;;25.70;6.03;;;;;;;8.45;90.52;102348.31;5028928;28;20312;-68
2023/05/24 06:09:34;;;;;;;25.48;6.03;;;;;;;8.53;88.23;102350.72;5022915;28;20549;-68
2023/05/24 06:11:59;;;;;;;17.65;5.97;;;;;;;8.63;89.22;102350.31;5008230;28;20018;-69
2023/05/24 06:14:24;;;;;;;26.10;6.85;;;;;;;8.78;91.25;102361.47;5007803;28;20074;-68
2023/05/24 06:16:53;;;;;;;19.63;5.80;;;;;;;8.86;90.28;102362.94;5008576;28;20391;-68
2023/05/24 06:19:19;;;;;;;17.00;6.13;;;;;;;8.95;90.87;102364.38;5006488;28;20046;-68
2023/05/24 06:21:46;;;;;;;24.95;6.45;;;;;;;9.03;90.72;102359.50;5010482;28;20037;-69
2023/05/24 06:24:13;;;;;;;23.63;6.18;;;;;;;9.12;90.99;102361.84;5026932;28;20025;-69
2023/05/24 06:26:40;;;;;;;20.02;7.82;;;;;;;9.22;91.75;102364.16;5028698;28;20041;-68
2023/05/24 06:29:06;;;;;;;19.77;6.05;;;;;;;9.32;92.15;102365.53;5026643;28;20029;-68
2023/05/24 06:31:31;;;;;;;23.50;7.35;;;;;;;9.40;90.69;102364.25;5013860;28;20482;-69
2023/05/24 06:33:57;;;;;;;23.40;7.22;;;;;;;9.50;91.00;102372.00;5008931;28;20060;-68
2023/05/24 06:36:22;;;;;;;27.35;7.15;;;;;;;9.58;89.25;102368.03;5027851;28;20041;-68
2023/05/24 06:38:48;;;;;;;26.13;7.18;;;;;;;9.72;89.75;102367.41;5013439;28;20482;-68
2023/05/24 06:41:13;;;;;;;26.02;7.85;;;;;;;9.95;90.39;102361.81;5007506;28;20038;-68
2023/05/24 06:43:39;;;;;;;20.77;6.65;;;;;;;10.16;89.26;102367.22;5008372;28;20041;-68
2023/05/24 06:46:05;;;;;;;24.50;7.07;;;;;;;10.36;89.02;102355.47;5007779;28;20081;-69
2023/05/24 06:48:31;;;;;;;25.17;7.68;;;;;;;10.55;88.68;102355.47;5008043;28;20258;-68
2023/05/24 06:50:56;;;;;;;19.40;6.97;;;;;;;10.66;87.23;102364.84;5007768;28;20465;-68
2023/05/24 06:53:21;;;;;;;27.40;7.22;;;;;;;10.76;87.61;102362.56;5007303;28;20467;-68
2023/05/24 06:55:46;;;;;;;25.00;7.50;;;;;;;10.86;83.26;102372.03;5010141;28;20040;-69
2023/05/24 06:58:13;;;;;;;24.73;7.80;;;;;;;10.95;84.67;102363.41;5027339;28;20088;-68
2023/05/24 07:00:40;;;;;;;18.90;7.20;;;;;;;11.05;83.85;102369.31;5018307;28;20389;-68
2023/05/24 07:03:06;;;;;;;21.90;7.88;;;;;;;11.07;81.68;102363.78;5013267;28;20041;-69
2023/05/24 07:05:31;;;;;;;24.05;7.10;;;;;;;11.06;81.51;102372.91;5027353;28;20071;-68
2023/05/24 07:07:57;;;;;;;30.05;8.60;;;;;;;11.02;80.38;102365.84;5026686;28;20025;-68
2023/05/24 07:10:22;;;;;;;21.27;7.97;;;;;;;11.01;80.06;102355.94;5013973;28;20061;-68
2023/05/24 07:12:47;;;;;;;23.83;7.88;;;;;;;10.99;80.45;102361.44;5007307;28;20045;-68
2023/05/24 07:15:13;;;;;;;23.20;7.28;;;;;;;11.01;81.20;102372.28;5007413;28;20038;-69
2023/05/24 07:17:38;;;;;;;15.82;7.25;;;;;;;11.06;79.52;102365.63;5007687;28;20049;-68
2023/05/24 07:20:09;;;;;;;24.13;7.80;;;;;;;11.09;79.37;102367.28;5005757;28;20057;-68
2023/05/24 07:22:34;;;;;;;18.60;6.72;;;;;;;11.11;78.72;102373.56;5006719;28;20132;-69
2023/05/24 07:24:59;;;;;;;21.02;7.47;;;;;;;11.14;81.42;102368.81;5005646;28;20469;-68
2023/05/24 07:27:25;;;;;;;24.60;7.22;;;;;;;11.18;79.97;102366.84;5007470;28;20461;-69
2023/05/24 07:29:50;;;;;;;18.08;6.72;;;;;;;11.27;77.12;102371.81;5007034;28;20034;-68
2023/05/24 07:32:16;;;;;;;23.15;7.57;;;;;;;11.34;78.68;102364.22;5007266;28;20041;-69
2023/05/24 07:34:42;;;;;;;23.95;5.95;;;;;;;11.46;79.40;102371.75;5006820;28;20125;-68
2023/05/24 07:37:08;;;;;;;20.10;6.93;;;;;;;11.53;78.38;102375.06;5007351;28;20069;-68
2023/05/24 07:39:33;;;;;;;24.15;7.38;;;;;;;11.57;77.72;102379.41;5005716;28;20077;-69
2023/05/24 07:41:58;;;;;;;19.52;5.75;;;;;;;11.58;75.91;102376.59;5010155;28;20045;-68
2023/05/24 07:44:24;;;;;;;22.25;6.63;;;;;;;11.62;75.74;102378.19;5029226;28;20025;-69
2023/05/24 07:46:49;;;;;;;22.25;6.28;;;;;;;11.68;77.40;102368.81;5013546;28;20045;-69
2023/05/24 07:49:15;;;;;;;18.00;5.15;;;;;;;11.77;75.14;102376.50;5013509;28;20449;-68
2023/05/24 07:51:43;;;;;;;18.73;4.90;;;;;;;11.79;75.75;102362.75;5012914;28;20077;-69
2023/05/24 07:54:09;;;;;;;11.52;4.55;;;;;;;12.10;77.66;102370.22;5013373;28;20486;-69
2023/05/24 07:56:34;;;;;;;16.90;5.10;;;;;;;12.41;77.10;102372.16;5013033;28;20164;-69
2023/05/24 07:59:03;;;;;;;19.20;5.93;;;;;;;12.70;74.22;102370.50;5013113;28;20296;-69
2023/05/24 08:01:31;;;;;;;9.07;3.20;;;;;;;12.85;68.31;102383.28;5013811;28;20018;-69
2023/05/24 08:03:56;;;;;;;9.35;2.60;;;;;;;13.07;65.60;102382.94;5026412;28;20041;-69
2023/05/24 08:06:22;;;;;;;13.65;4.18;;;;;;;13.27;65.30;102388.13;5033529;28;20036;-69
2023/05/24 08:08:48;;;;;;;13.70;3.53;;;;;;;13.35;69.39;102381.34;5025498;28;20038;-69
2023/05/24 08:11:14;;;;;;;12.48;4.30;;;;;;;13.34;67.56;102377.72;5011813;28;20052;-69
2023/05/24 08:13:39;;;;;;;14.43;3.80;;;;;;;13.59;65.81;102377.13;5013637;28;20075;-69
2023/05/24 08:16:05;;;;;;;15.18;4.50;;;;;;;13.77;66.57;102370.53;5026031;28;20467;-69
2023/05/24 08:18:30;;;;;;;15.65;4.90;;;;;;;14.16;65.23;102370.88;5017680;28;20030;-69
2023/05/24 08:20:56;;;;;;;15.02;3.63;;;;;;;14.57;64.58;102371.00;5013328;28;20052;-70
2023/05/24 08:23:21;;;;;;;13.48;4.28;;;;;;;15.27;65.92;102366.31;5011276;28;20045;-69
2023/05/24 08:25:47;;;;;;;23.45;5.28;;;;;;;15.45;63.07;102371.53;5012971;28;20049;-69
2023/05/24 08:28:12;;;;;;;14.25;4.18;;;;;;;15.43;64.21;102370.72;5025944;28;20036;-70
2023/05/24 08:30:38;;;;;;;14.35;4.07;;;;;;;15.42;62.40;102374.47;5033666;28;20041;-69
2023/05/24 08:33:03;;;;;;;17.25;4.40;;;;;;;15.62;62.99;102363.00;5021126;28;20045;-69
2023/05/24 08:35:28;;;;;;;13.77;4.22;;;;;;;15.89;58.72;102362.94;5021988;28;20512;-69
2023/05/24 08:37:54;;;;;;;15.52;3.90;;;;;;;16.15;59.55;102365.72;5012444;28;20529;-69
2023/05/24 08:40:19;;;;;;;18.48;4.38;;;;;;;16.22;55.36;102362.41;5012797;28;20128;-69
2023/05/24 08:42:45;;;;;;;14.48;4.30;;;;;;;16.25;55.78;102356.72;5012645;28;20477;-70
2023/05/24 08:45:12;;;;;;;10.10;3.42;;;;;;;16.32;56.86;102352.53;5013434;28;20053;-70
2023/05/24 08:47:38;;;;;;;13.93;3.80;;;;;;;16.31;57.80;102348.00;5013446;28;20448;-70
2023/05/24 08:50:05;;;;;;;11.68;3.67;;;;;;;16.56;54.62;102336.13;5013139;28;20061;-70
2023/05/24 08:52:31;;;;;;;16.15;4.72;;;;;;;16.97;55.48;102347.78;5011769;28;20249;-70
2023/05/24 08:55:02;;;;;;;11.60;3.58;;;;;;;17.11;56.48;102339.34;5009326;28;20442;-69
2023/05/24 08:57:30;;;;;;;20.30;4.13;;;;;;;17.06;53.20;102345.19;5009498;28;20038;-69
2023/05/24 08:59:55;;;;;;;17.25;4.25;;;;;;;17.13;51.84;102339.25;5009966;28;20449;-69
2023/05/24 09:02:21;;;;;;;15.80;4.03;;;;;;;17.74;52.83;102343.66;5009095;28;20110;-69
2023/05/24 09:04:52;;;;;;;15.88;4.15;;;;;;;17.61;51.32;102340.06;5029440;28;20080;-70
2023/05/24 09:07:22;;;;;;;12.02;3.22;;;;;;;18.23;51.84;102331.47;5028246;28;20033;-69
2023/05/24 09:09:55;;;;;;;9.90;3.35;;;;;;;18.89;51.99;102334.31;5028451;28;20041;-69
2023/05/24 09:12:23;;;;;;;12.07;3.50;;;;;;;19.49;53.81;102332.84;5015848;28;20037;-70
2023/05/24 09:14:48;;;;;;;12.10;3.30;;;;;;;19.22;46.99;102341.63;5009327;28;20053;-69
2023/05/24 09:17:14;;;;;;;19.23;4.07;;;;;;;18.79;47.80;102336.06;5009943;28;20076;-70
2023/05/24 09:19:46;;;;;;;13.05;3.50;;;;;;;18.52;46.39;102331.84;5009686;28;20430;-69
2023/05/24 09:22:13;;;;;;;10.85;3.25;;;;;;;18.14;46.16;102340.47;5009575;28;20048;-70
2023/05/24 09:24:42;;;;;;;11.38;3.03;;;;;;;17.96;48.00;102331.81;5008976;28;20029;-69
2023/05/24 09:27:08;;;;;;;15.98;3.60;;;;;;;17.64;46.58;102337.09;5009957;28;20038;-70
2023/05/24 09:29:35;;;;;;;13.43;3.50;;;;;;;17.74;47.67;102327.13;5008722;28;20042;-69
2023/05/24 09:32:03;;;;;;;11.05;3.25;;;;;;;18.19;48.91;102337.34;5009335;28;20041;-70
2023/05/24 09:34:28;;;;;;;10.18;3.35;;;;;;;18.59;48.87;102327.56;5009325;28;20058;-71
2023/05/24 09:36:54;;;;;;;11.98;3.92;;;;;;;18.48;46.83;102332.22;5008897;28;20107;-69
2023/05/24 09:39:20;;;;;;;12.88;3.65;;;;;;;18.43;49.15;102326.22;5026193;28;20048;-71
2023/05/24 09:41:54;;;;;;;12.65;3.55;;;;;;;19.15;52.46;102326.59;5029035;28;20037;-70
2023/05/24 09:44:29;;;;;;;12.73;3.55;;;;;;;19.60;48.13;102324.53;5028787;28;20045;-70
2023/05/24 09:47:03;;;;;;;12.27;3.63;;;;;;;19.48;48.21;102328.31;5016462;28;20092;-70
2023/05/24 09:49:29;;;;;;;10.88;3.10;;;;;;;19.59;46.40;102325.53;5008938;28;20044;-70
2023/05/24 09:51:55;;;;;;;15.95;3.08;;;;;;;19.42;45.88;102330.75;5008865;28;20033;-70
2023/05/24 09:54:20;;;;;;;15.75;3.13;;;;;;;19.07;48.04;102327.25;5007640;28;20109;-69
2023/05/24 09:56:46;;;;;;;10.63;3.20;;;;;;;18.68;45.07;102322.28;5026764;28;20073;-70
2023/05/24 09:59:11;;;;;;;13.70;3.83;;;;;;;18.75;47.14;102318.94;5018421;28;20029;-70
2023/05/24 10:01:37;;;;;;;8.23;2.97;;;;;;;19.13;47.62;102324.97;5029174;28;20095;-69
2023/05/24 10:04:05;;;;;;;10.35;3.45;;;;;;;18.85;44.00;102330.06;5011892;28;20024;-70
2023/05/24 10:06:36;;;;;;;12.55;3.55;;;;;;;18.48;46.73;102321.19;5007927;28;20205;-69
2023/05/24 10:09:06;;;;;;;11.68;3.40;;;;;;;18.85;50.46;102324.56;5007925;28;20041;-70
2023/05/24 10:11:34;;;;;;;15.45;4.05;;;;;;;19.29;47.05;102317.13;5022009;28;20034;-70
2023/05/24 10:14:00;;;;;;;8.88;2.92;;;;;;;19.71;45.15;102315.31;5028376;28;20070;-70
2023/05/24 10:16:25;;;;;;;13.05;3.30;;;;;;;19.81;46.95;102324.53;5018675;28;20100;-70
2023/05/24 10:18:53;;;;;;;13.50;3.05;;;;;;;20.17;47.59;102311.22;5008213;28;20116;-70
2023/05/24 10:21:20;;;;;;;9.68;3.08;;;;;;;20.38;48.05;102319.47;5008341;28;20053;-70
2023/05/24 10:23:50;;;;;;;14.70;3.70;;;;;;;20.13;46.33;102306.97;5007993;28;20042;-70
2023/05/24 10:26:16;;;;;;;11.48;3.20;;;;;;;19.66;43.73;102313.97;5009619;28;20038;-71
2023/05/24 10:28:51;;;;;;;12.32;3.33;;;;;;;19.24;45.28;102320.28;5027614;28;20112;-69
2023/05/24 10:31:35;;;;;;;12.32;3.70;;;;;;;18.85;47.73;102313.53;5028098;28;20033;-70
2023/05/24 10:34:04;;;;;;;11.10;3.60;;;;;;;18.93;45.50;102304.59;5008347;28;20046;-71
2023/05/24 10:36:29;;;;;;;11.48;3.42;;;;;;;19.17;47.95;102308.03;5008301;28;20441;-70
2023/05/24 10:38:55;;;;;;;8.80;2.92;;;;;;;18.84;44.99;102309.03;5007276;28;20046;-70
2023/05/24 10:41:25;;;;;;;10.73;3.28;;;;;;;18.58;46.89;102309.28;5011570;28;20068;-69
2023/05/24 10:43:52;;;;;;;9.73;2.83;;;;;;;18.31;45.92;102306.91;5027569;28;20048;-71
2023/05/24 10:46:20;;;;;;;10.80;3.60;;;;;;;18.02;48.61;102292.75;5027970;28;20025;-70
2023/05/24 10:48:59;;;;;;;9.00;2.80;;;;;;;18.23;48.39;102300.25;5010744;28;20041;-71
2023/05/24 10:51:38;;;;;;;10.50;3.50;;;;;;;18.43;48.29;102304.16;5007845;28;20037;-71
2023/05/24 10:54:15;;;;;;;9.05;3.13;;;;;;;18.50;47.99;102302.63;5006897;28;20044;-71
2023/05/24 10:56:48;;;;;;;11.50;3.25;;;;;;;18.51;47.65;102308.03;5018260;28;20076;-71
2023/05/24 10:59:36;;;;;;;12.20;3.40;;;;;;;18.61;49.33;102313.66;5027260;28;20080;-70
2023/05/24 11:02:05;;;;;;;9.80;3.33;;;;;;;18.43;47.37;102310.56;5015998;28;20050;-70
2023/05/24 11:04:36;;;;;;;10.70;3.28;;;;;;;18.21;47.36;102305.03;5020095;28;20661;-70
2023/05/24 11:07:04;;;;;;;13.32;3.60;;;;;;;18.12;47.97;102303.03;5007844;28;20600;-70
2023/05/24 11:09:31;;;;;;;8.80;3.10;;;;;;;18.25;48.46;102304.66;5004752;28;20128;-70
2023/05/24 11:12:06;;;;;;;8.77;3.25;;;;;;;18.39;48.20;102306.28;5007992;28;20034;-71
2023/05/24 11:14:38;;;;;;;12.82;3.08;;;;;;;18.33;47.49;102304.91;5007253;28;20044;-71
2023/05/24 11:17:04;;;;;;;12.45;2.70;;;;;;;18.52;48.92;102306.16;5008601;28;20498;-70
2023/05/24 11:19:37;;;;;;;13.77;3.38;;;;;;;18.52;50.05;102318.06;5026833;28;20029;-71
2023/05/24 11:22:06;;;;;;;12.20;3.17;;;;;;;18.47;45.83;102309.28;5027400;28;20042;-70
2023/05/24 11:24:31;;;;;;;12.38;3.08;;;;;;;18.55;47.21;102309.50;5023692;28;20052;-71